sensor_id;sensor_type;location;lat;lon;timestamp;P1;durP1;ratioP1;P2;durP2;ratioP2
727;SDS011;347;48.780;9.158;2023-04-01T00:01:48;7.33;;;7.00;;
727;SDS011;347;48.780;9.158;2023-04-01T00:04:13;7.17;;;6.87;;
727;SDS011;347;48.780;9.158;2023-04-01T00:06:40;6.87;;;6.57;;
727;SDS011;347;48.780;9.158;2023-04-01T00:09:06;7.30;;;7.00;;
727;SDS011;347;48.780;9.158;2023-04-01T00:11:32;6.80;;;6.60;;
727;SDS011;347;48.780;9.158;2023-04-01T00:13:58;7.33;;;7.13;;
727;SDS011;347;48.780;9.158;2023-04-01T00:16:23;6.80;;;6.50;;
727;SDS011;347;48.780;9.158;2023-04-01T00:18:49;7.53;;;7.10;;
727;SDS011;347;48.780;9.158;2023-04-01T00:21:16;7.67;;;7.33;;
727;SDS011;347;48.780;9.158;2023-04-01T00:23:42;7.47;;;7.17;;
727;SDS011;347;48.780;9.158;2023-04-01T00:26:08;7.23;;;7.03;;
727;SDS011;347;48.780;9.158;2023-04-01T00:28:34;8.07;;;7.57;;
727;SDS011;347;48.780;9.158;2023-04-01T00:31:05;7.60;;;7.30;;
727;SDS011;347;48.780;9.158;2023-04-01T00:33:31;7.30;;;6.90;;
727;SDS011;347;48.780;9.158;2023-04-01T00:36:05;7.37;;;7.00;;
727;SDS011;347;48.780;9.158;2023-04-01T00:38:34;7.40;;;7.00;;
727;SDS011;347;48.780;9.158;2023-04-01T00:41:01;9.70;;;9.10;;
727;SDS011;347;48.780;9.158;2023-04-01T00:43:27;7.83;;;7.33;;
727;SDS011;347;48.780;9.158;2023-04-01T00:45:52;7.77;;;7.47;;
727;SDS011;347;48.780;9.158;2023-04-01T00:48:23;7.30;;;7.00;;
727;SDS011;347;48.780;9.158;2023-04-01T00:50:52;7.37;;;6.97;;
727;SDS011;347;48.780;9.158;2023-04-01T00:53:27;7.40;;;7.10;;
727;SDS011;347;48.780;9.158;2023-04-01T00:56:30;7.07;;;6.77;;
727;SDS011;347;48.780;9.158;2023-04-01T00:58:51;7.83;;;7.40;;
727;SDS011;347;48.780;9.158;2023-04-01T01:01:23;7.83;;;7.57;;
727;SDS011;347;48.780;9.158;2023-04-01T01:03:50;8.00;;;7.63;;
727;SDS011;347;48.780;9.158;2023-04-01T01:12:15;8.47;;;7.73;;
727;SDS011;347;48.780;9.158;2023-04-01T01:22:59;7.23;;;6.93;;
727;SDS011;347;48.780;9.158;2023-04-01T01:28:28;7.90;;;7.40;;
727;SDS011;347;48.780;9.158;2023-04-01T01:30:53;7.50;;;7.20;;
727;SDS011;347;48.780;9.158;2023-04-01T01:33:35;7.57;;;7.23;;
727;SDS011;347;48.780;9.158;2023-04-01T01:36:11;7.17;;;6.87;;
727;SDS011;347;48.780;9.158;2023-04-01T01:38:39;7.60;;;7.30;;
727;SDS011;347;48.780;9.158;2023-04-01T01:41:05;8.07;;;7.77;;
727;SDS011;347;48.780;9.158;2023-04-01T01:43:35;7.17;;;6.87;;
727;SDS011;347;48.780;9.158;2023-04-01T01:46:09;7.60;;;7.10;;
727;SDS011;347;48.780;9.158;2023-04-01T01:48:38;6.93;;;6.53;;
727;SDS011;347;48.780;9.158;2023-04-01T01:51:06;6.83;;;6.43;;
727;SDS011;347;48.780;9.158;2023-04-01T01:53:32;7.80;;;7.47;;
727;SDS011;347;48.780;9.158;2023-04-01T01:55:58;7.73;;;7.23;;
727;SDS011;347;48.780;9.158;2023-04-01T01:58:32;7.80;;;7.50;;
727;SDS011;347;48.780;9.158;2023-04-01T02:01:09;7.67;;;7.33;;
727;SDS011;347;48.780;9.158;2023-04-01T02:03:37;7.23;;;7.03;;
727;SDS011;347;48.780;9.158;2023-04-01T02:06:06;7.70;;;7.40;;
727;SDS011;347;48.780;9.158;2023-04-01T02:11:10;7.47;;;7.17;;
727;SDS011;347;48.780;9.158;2023-04-01T02:16:05;7.57;;;7.17;;
727;SDS011;347;48.780;9.158;2023-04-01T02:18:37;7.63;;;7.33;;
727;SDS011;347;48.780;9.158;2023-04-01T02:21:04;7.90;;;7.40;;
727;SDS011;347;48.780;9.158;2023-04-01T02:23:33;8.20;;;7.80;;
727;SDS011;347;48.780;9.158;2023-04-01T02:26:00;7.63;;;7.17;;
727;SDS011;347;48.780;9.158;2023-04-01T02:28:27;7.73;;;7.43;;
727;SDS011;347;48.780;9.158;2023-04-01T02:30:54;7.93;;;7.63;;
727;SDS011;347;48.780;9.158;2023-04-01T02:33:20;7.03;;;6.83;;
727;SDS011;347;48.780;9.158;2023-04-01T02:35:46;7.73;;;7.33;;
727;SDS011;347;48.780;9.158;2023-04-01T02:38:12;7.83;;;7.57;;
727;SDS011;347;48.780;9.158;2023-04-01T02:40:47;7.90;;;7.50;;
727;SDS011;347;48.780;9.158;2023-04-01T02:43:15;7.10;;;6.90;;
727;SDS011;347;48.780;9.158;2023-04-01T02:45:41;7.30;;;7.10;;
727;SDS011;347;48.780;9.158;2023-04-01T02:48:08;7.43;;;7.13;;
727;SDS011;347;48.780;9.158;2023-04-01T02:50:34;8.23;;;7.93;;
727;SDS011;347;48.780;9.158;2023-04-01T02:53:00;8.03;;;7.80;;
727;SDS011;347;48.780;9.158;2023-04-01T02:55:28;8.13;;;7.83;;
727;SDS011;347;48.780;9.158;2023-04-01T02:57:55;7.70;;;7.50;;
727;SDS011;347;48.780;9.158;2023-04-01T03:00:21;7.60;;;7.30;;
727;SDS011;347;48.780;9.158;2023-04-01T03:02:46;7.70;;;7.43;;
727;SDS011;347;48.780;9.158;2023-04-01T03:05:12;7.60;;;7.40;;
727;SDS011;347;48.780;9.158;2023-04-01T03:07:38;7.77;;;7.57;;
727;SDS011;347;48.780;9.158;2023-04-01T03:10:04;7.40;;;7.20;;
727;SDS011;347;48.780;9.158;2023-04-01T03:12:30;7.20;;;6.97;;
727;SDS011;347;48.780;9.158;2023-04-01T03:14:56;8.00;;;7.73;;
727;SDS011;347;48.780;9.158;2023-04-01T03:17:22;7.80;;;7.60;;
727;SDS011;347;48.780;9.158;2023-04-01T03:19:47;8.03;;;7.73;;
727;SDS011;347;48.780;9.158;2023-04-01T03:22:13;7.80;;;7.60;;
727;SDS011;347;48.780;9.158;2023-04-01T03:24:39;8.17;;;7.90;;
727;SDS011;347;48.780;9.158;2023-04-01T03:27:05;7.47;;;7.27;;
727;SDS011;347;48.780;9.158;2023-04-01T03:29:30;8.10;;;7.90;;
727;SDS011;347;48.780;9.158;2023-04-01T03:31:56;7.50;;;7.30;;
727;SDS011;347;48.780;9.158;2023-04-01T03:34:23;7.70;;;7.50;;
727;SDS011;347;48.780;9.158;2023-04-01T03:36:49;7.67;;;7.37;;
727;SDS011;347;48.780;9.158;2023-04-01T03:39:16;7.30;;;7.07;;
727;SDS011;347;48.780;9.158;2023-04-01T03:41:43;7.53;;;7.33;;
727;SDS011;347;48.780;9.158;2023-04-01T03:44:12;8.63;;;8.23;;
727;SDS011;347;48.780;9.158;2023-04-01T03:46:38;7.73;;;7.53;;
727;SDS011;347;48.780;9.158;2023-04-01T03:49:06;8.37;;;7.97;;
727;SDS011;347;48.780;9.158;2023-04-01T03:51:36;8.97;;;8.67;;
727;SDS011;347;48.780;9.158;2023-04-01T03:54:03;7.80;;;7.60;;
727;SDS011;347;48.780;9.158;2023-04-01T03:56:30;7.63;;;7.40;;
727;SDS011;347;48.780;9.158;2023-04-01T03:58:55;8.37;;;8.07;;
727;SDS011;347;48.780;9.158;2023-04-01T04:01:21;7.70;;;7.40;;
727;SDS011;347;48.780;9.158;2023-04-01T04:03:47;7.57;;;7.37;;
727;SDS011;347;48.780;9.158;2023-04-01T04:06:15;7.90;;;7.60;;
727;SDS011;347;48.780;9.158;2023-04-01T04:08:42;7.63;;;7.43;;
727;SDS011;347;48.780;9.158;2023-04-01T04:11:08;7.70;;;7.40;;
727;SDS011;347;48.780;9.158;2023-04-01T04:13:34;8.17;;;7.97;;
727;SDS011;347;48.780;9.158;2023-04-01T04:16:00;8.10;;;7.50;;
727;SDS011;347;48.780;9.158;2023-04-01T04:18:27;7.63;;;7.43;;
727;SDS011;347;48.780;9.158;2023-04-01T04:20:52;7.47;;;7.27;;
727;SDS011;347;48.780;9.158;2023-04-01T04:23:18;7.50;;;7.20;;
727;SDS011;347;48.780;9.158;2023-04-01T04:25:54;7.97;;;7.67;;
727;SDS011;347;48.780;9.158;2023-04-01T04:28:24;7.60;;;7.40;;
727;SDS011;347;48.780;9.158;2023-04-01T04:30:51;8.27;;;8.07;;
727;SDS011;347;48.780;9.158;2023-04-01T04:33:17;7.43;;;7.23;;
727;SDS011;347;48.780;9.158;2023-04-01T04:35:43;7.63;;;7.43;;
727;SDS011;347;48.780;9.158;2023-04-01T04:38:08;7.70;;;7.40;;
727;SDS011;347;48.780;9.158;2023-04-01T04:40:36;7.73;;;7.33;;
727;SDS011;347;48.780;9.158;2023-04-01T04:43:02;8.93;;;8.63;;
727;SDS011;347;48.780;9.158;2023-04-01T04:45:28;7.40;;;7.20;;
727;SDS011;347;48.780;9.158;2023-04-01T04:47:54;8.40;;;8.10;;
727;SDS011;347;48.780;9.158;2023-04-01T04:50:20;7.30;;;6.97;;
727;SDS011;347;48.780;9.158;2023-04-01T04:52:45;7.33;;;7.13;;
727;SDS011;347;48.780;9.158;2023-04-01T04:55:11;7.47;;;7.27;;
727;SDS011;347;48.780;9.158;2023-04-01T04:57:37;7.57;;;7.27;;
727;SDS011;347;48.780;9.158;2023-04-01T05:00:03;8.37;;;7.87;;
727;SDS011;347;48.780;9.158;2023-04-01T05:02:29;7.43;;;7.10;;
727;SDS011;347;48.780;9.158;2023-04-01T05:04:54;7.70;;;7.20;;
727;SDS011;347;48.780;9.158;2023-04-01T05:07:20;7.53;;;7.13;;
727;SDS011;347;48.780;9.158;2023-04-01T05:09:46;7.50;;;7.30;;
727;SDS011;347;48.780;9.158;2023-04-01T05:12:12;7.73;;;7.43;;
727;SDS011;347;48.780;9.158;2023-04-01T05:14:38;7.30;;;7.10;;
727;SDS011;347;48.780;9.158;2023-04-01T05:17:04;8.17;;;7.90;;
727;SDS011;347;48.780;9.158;2023-04-01T05:19:33;7.53;;;7.23;;
727;SDS011;347;48.780;9.158;2023-04-01T05:21:58;7.93;;;7.57;;
727;SDS011;347;48.780;9.158;2023-04-01T05:24:24;7.73;;;7.43;;
727;SDS011;347;48.780;9.158;2023-04-01T05:26:50;8.37;;;8.07;;
727;SDS011;347;48.780;9.158;2023-04-01T05:29:15;8.30;;;7.90;;
727;SDS011;347;48.780;9.158;2023-04-01T05:31:41;8.27;;;7.97;;
727;SDS011;347;48.780;9.158;2023-04-01T05:34:06;8.60;;;8.30;;
727;SDS011;347;48.780;9.158;2023-04-01T05:36:32;8.90;;;8.60;;
727;SDS011;347;48.780;9.158;2023-04-01T05:38:59;8.13;;;7.73;;
727;SDS011;347;48.780;9.158;2023-04-01T05:41:25;8.67;;;8.30;;
727;SDS011;347;48.780;9.158;2023-04-01T05:43:50;8.20;;;7.90;;
727;SDS011;347;48.780;9.158;2023-04-01T05:46:16;8.27;;;7.80;;
727;SDS011;347;48.780;9.158;2023-04-01T05:48:41;8.53;;;8.17;;
727;SDS011;347;48.780;9.158;2023-04-01T05:51:11;8.13;;;7.83;;
727;SDS011;347;48.780;9.158;2023-04-01T05:53:38;8.90;;;8.50;;
727;SDS011;347;48.780;9.158;2023-04-01T05:56:04;8.80;;;8.40;;
727;SDS011;347;48.780;9.158;2023-04-01T05:58:30;8.40;;;8.03;;
727;SDS011;347;48.780;9.158;2023-04-01T06:01:00;8.23;;;7.83;;
727;SDS011;347;48.780;9.158;2023-04-01T06:03:31;8.23;;;7.93;;
727;SDS011;347;48.780;9.158;2023-04-01T06:05:57;8.73;;;8.13;;
727;SDS011;347;48.780;9.158;2023-04-01T06:08:23;8.60;;;8.30;;
727;SDS011;347;48.780;9.158;2023-04-01T06:48:15;9.30;;;8.90;;
727;SDS011;347;48.780;9.158;2023-04-01T06:54:24;8.00;;;7.70;;
727;SDS011;347;48.780;9.158;2023-04-01T06:57:00;7.93;;;7.63;;
727;SDS011;347;48.780;9.158;2023-04-01T06:59:33;8.30;;;8.00;;
727;SDS011;347;48.780;9.158;2023-04-01T07:04:51;8.20;;;7.90;;
727;SDS011;347;48.780;9.158;2023-04-01T07:09:56;8.27;;;7.97;;
727;SDS011;347;48.780;9.158;2023-04-01T07:13:09;8.50;;;8.10;;
727;SDS011;347;48.780;9.158;2023-04-01T07:15:17;8.37;;;7.90;;
727;SDS011;347;48.780;9.158;2023-04-01T07:17:46;8.00;;;7.47;;
727;SDS011;347;48.780;9.158;2023-04-01T07:20:24;7.87;;;7.57;;
727;SDS011;347;48.780;9.158;2023-04-01T07:22:56;7.87;;;7.60;;
727;SDS011;347;48.780;9.158;2023-04-01T07:25:29;8.13;;;7.83;;
727;SDS011;347;48.780;9.158;2023-04-01T07:28:05;7.77;;;7.30;;
727;SDS011;347;48.780;9.158;2023-04-01T07:30:44;7.87;;;7.57;;
727;SDS011;347;48.780;9.158;2023-04-01T07:33:39;7.73;;;7.23;;
727;SDS011;347;48.780;9.158;2023-04-01T07:36:24;7.80;;;7.47;;
727;SDS011;347;48.780;9.158;2023-04-01T07:41:43;8.30;;;7.90;;
727;SDS011;347;48.780;9.158;2023-04-01T07:52:11;7.80;;;7.50;;
727;SDS011;347;48.780;9.158;2023-04-01T07:57:22;7.50;;;7.23;;
727;SDS011;347;48.780;9.158;2023-04-01T08:07:56;7.93;;;7.63;;
727;SDS011;347;48.780;9.158;2023-04-01T08:16:11;7.60;;;7.17;;
727;SDS011;347;48.780;9.158;2023-04-01T08:21:32;7.27;;;7.07;;
727;SDS011;347;48.780;9.158;2023-04-01T08:26:59;8.03;;;7.73;;
727;SDS011;347;48.780;9.158;2023-04-01T08:29:34;7.80;;;7.50;;
727;SDS011;347;48.780;9.158;2023-04-01T08:32:15;7.63;;;7.33;;
727;SDS011;347;48.780;9.158;2023-04-01T08:34:46;7.90;;;7.50;;
727;SDS011;347;48.780;9.158;2023-04-01T08:37:23;7.43;;;7.13;;
727;SDS011;347;48.780;9.158;2023-04-01T08:40:05;7.53;;;7.30;;
727;SDS011;347;48.780;9.158;2023-04-01T08:43:06;7.97;;;7.67;;
727;SDS011;347;48.780;9.158;2023-04-01T08:48:59;8.50;;;7.67;;
727;SDS011;347;48.780;9.158;2023-04-01T08:54:13;7.10;;;6.80;;
727;SDS011;347;48.780;9.158;2023-04-01T09:05:53;6.80;;;6.50;;
727;SDS011;347;48.780;9.158;2023-04-01T10:20:12;6.40;;;6.20;;
727;SDS011;347;48.780;9.158;2023-04-01T10:23:16;6.50;;;6.30;;
727;SDS011;347;48.780;9.158;2023-04-01T10:29:02;6.03;;;5.83;;
727;SDS011;347;48.780;9.158;2023-04-01T10:54:59;6.50;;;6.30;;
727;SDS011;347;48.780;9.158;2023-04-01T11:24:58;7.00;;;6.80;;
727;SDS011;347;48.780;9.158;2023-04-01T11:34:24;7.13;;;6.50;;
727;SDS011;347;48.780;9.158;2023-04-01T11:36:40;7.37;;;7.10;;
727;SDS011;347;48.780;9.158;2023-04-01T11:56:29;7.10;;;6.90;;
727;SDS011;347;48.780;9.158;2023-04-01T12:14:31;6.87;;;6.67;;
727;SDS011;347;48.780;9.158;2023-04-01T12:31:42;6.73;;;6.53;;
727;SDS011;347;48.780;9.158;2023-04-01T12:45:03;7.47;;;7.07;;
727;SDS011;347;48.780;9.158;2023-04-01T12:56:00;6.43;;;6.23;;
727;SDS011;347;48.780;9.158;2023-04-01T13:20:54;6.73;;;6.53;;
727;SDS011;347;48.780;9.158;2023-04-01T13:37:54;6.47;;;6.27;;
727;SDS011;347;48.780;9.158;2023-04-01T13:43:25;7.03;;;6.83;;
727;SDS011;347;48.780;9.158;2023-04-01T13:48:35;6.80;;;6.60;;
727;SDS011;347;48.780;9.158;2023-04-01T13:51:26;6.47;;;6.27;;
727;SDS011;347;48.780;9.158;2023-04-01T14:12:09;6.50;;;6.30;;
727;SDS011;347;48.780;9.158;2023-04-01T14:17:50;6.73;;;6.43;;
727;SDS011;347;48.780;9.158;2023-04-01T14:45:07;6.50;;;6.33;;
727;SDS011;347;48.780;9.158;2023-04-01T14:50:43;7.27;;;7.03;;
727;SDS011;347;48.780;9.158;2023-04-01T14:53:16;7.80;;;7.60;;
727;SDS011;347;48.780;9.158;2023-04-01T14:55:52;6.77;;;6.67;;
727;SDS011;347;48.780;9.158;2023-04-01T14:58:23;8.03;;;7.63;;
727;SDS011;347;48.780;9.158;2023-04-01T15:03:56;6.40;;;6.30;;
727;SDS011;347;48.780;9.158;2023-04-01T15:06:35;7.13;;;6.93;;
727;SDS011;347;48.780;9.158;2023-04-01T15:12:01;6.73;;;6.53;;
727;SDS011;347;48.780;9.158;2023-04-01T15:14:43;6.23;;;6.03;;
727;SDS011;347;48.780;9.158;2023-04-01T15:20:35;6.77;;;6.47;;
727;SDS011;347;48.780;9.158;2023-04-01T15:31:44;6.70;;;6.50;;
727;SDS011;347;48.780;9.158;2023-04-01T15:37:19;6.77;;;6.57;;
727;SDS011;347;48.780;9.158;2023-04-01T15:39:51;7.00;;;6.70;;
727;SDS011;347;48.780;9.158;2023-04-01T15:48:01;6.40;;;6.20;;
727;SDS011;347;48.780;9.158;2023-04-01T16:21:51;6.40;;;6.10;;
727;SDS011;347;48.780;9.158;2023-04-01T16:24:23;6.57;;;6.37;;
727;SDS011;347;48.780;9.158;2023-04-01T16:37:36;6.80;;;6.60;;
727;SDS011;347;48.780;9.158;2023-04-01T16:40:57;7.00;;;6.80;;
727;SDS011;347;48.780;9.158;2023-04-01T16:43:15;6.80;;;6.50;;
727;SDS011;347;48.780;9.158;2023-04-01T16:45:54;6.17;;;5.97;;
727;SDS011;347;48.780;9.158;2023-04-01T16:49:17;6.90;;;6.70;;
727;SDS011;347;48.780;9.158;2023-04-01T16:51:17;7.50;;;7.20;;
727;SDS011;347;48.780;9.158;2023-04-01T16:53:49;6.87;;;6.67;;
727;SDS011;347;48.780;9.158;2023-04-01T16:56:28;6.37;;;6.17;;
727;SDS011;347;48.780;9.158;2023-04-01T16:59:17;6.10;;;5.90;;
727;SDS011;347;48.780;9.158;2023-04-01T17:01:53;6.10;;;6.00;;
727;SDS011;347;48.780;9.158;2023-04-01T17:12:25;7.40;;;7.10;;
727;SDS011;347;48.780;9.158;2023-04-01T17:15:25;6.87;;;6.67;;
727;SDS011;347;48.780;9.158;2023-04-01T17:26:46;6.90;;;6.60;;
727;SDS011;347;48.780;9.158;2023-04-01T17:28:56;6.73;;;6.43;;
727;SDS011;347;48.780;9.158;2023-04-01T17:32:03;5.60;;;5.50;;
727;SDS011;347;48.780;9.158;2023-04-01T17:43:18;6.80;;;6.50;;
727;SDS011;347;48.780;9.158;2023-04-01T17:51:56;6.03;;;5.73;;
727;SDS011;347;48.780;9.158;2023-04-01T17:54:45;6.17;;;5.87;;
727;SDS011;347;48.780;9.158;2023-04-01T17:58:00;6.20;;;5.97;;
727;SDS011;347;48.780;9.158;2023-04-01T18:22:17;7.70;;;7.40;;
727;SDS011;347;48.780;9.158;2023-04-01T18:27:38;8.60;;;8.20;;
727;SDS011;347;48.780;9.158;2023-04-01T18:30:17;8.87;;;8.47;;
727;SDS011;347;48.780;9.158;2023-04-01T18:32:57;8.90;;;8.50;;
727;SDS011;347;48.780;9.158;2023-04-01T18:38:27;7.63;;;7.30;;
727;SDS011;347;48.780;9.158;2023-04-01T18:46:33;7.53;;;7.20;;
727;SDS011;347;48.780;9.158;2023-04-01T18:54:32;6.97;;;6.70;;
727;SDS011;347;48.780;9.158;2023-04-01T18:59:42;7.03;;;6.73;;
727;SDS011;347;48.780;9.158;2023-04-01T19:04:50;6.73;;;6.43;;
727;SDS011;347;48.780;9.158;2023-04-01T19:15:49;6.33;;;6.13;;
727;SDS011;347;48.780;9.158;2023-04-01T19:32:42;7.33;;;7.03;;
727;SDS011;347;48.780;9.158;2023-04-01T19:35:39;7.70;;;7.37;;
727;SDS011;347;48.780;9.158;2023-04-01T19:38:29;7.40;;;7.10;;
727;SDS011;347;48.780;9.158;2023-04-01T19:44:12;8.33;;;7.93;;
727;SDS011;347;48.780;9.158;2023-04-01T19:49:23;7.30;;;7.10;;
727;SDS011;347;48.780;9.158;2023-04-01T19:52:00;6.57;;;6.33;;
727;SDS011;347;48.780;9.158;2023-04-01T20:05:45;7.17;;;6.87;;
727;SDS011;347;48.780;9.158;2023-04-01T20:08:39;6.87;;;6.37;;
727;SDS011;347;48.780;9.158;2023-04-01T20:14:14;7.63;;;7.13;;
727;SDS011;347;48.780;9.158;2023-04-01T20:19:39;7.03;;;6.83;;
727;SDS011;347;48.780;9.158;2023-04-01T20:22:16;7.43;;;7.13;;
727;SDS011;347;48.780;9.158;2023-04-01T20:24:47;7.27;;;7.03;;
727;SDS011;347;48.780;9.158;2023-04-01T20:27:16;8.83;;;8.43;;
727;SDS011;347;48.780;9.158;2023-04-01T20:30:04;8.20;;;7.63;;
727;SDS011;347;48.780;9.158;2023-04-01T20:41:02;6.50;;;6.30;;
727;SDS011;347;48.780;9.158;2023-04-01T20:51:39;6.23;;;6.03;;
727;SDS011;347;48.780;9.158;2023-04-01T20:59:28;7.00;;;6.60;;
727;SDS011;347;48.780;9.158;2023-04-01T21:11:28;6.40;;;6.20;;
727;SDS011;347;48.780;9.158;2023-04-01T21:19:59;6.67;;;6.47;;
727;SDS011;347;48.780;9.158;2023-04-01T21:28:48;7.50;;;7.20;;
727;SDS011;347;48.780;9.158;2023-04-01T22:13:55;6.60;;;6.30;;
727;SDS011;347;48.780;9.158;2023-04-01T22:16:36;6.30;;;6.10;;
727;SDS011;347;48.780;9.158;2023-04-01T22:21:52;7.20;;;6.80;;
727;SDS011;347;48.780;9.158;2023-04-01T22:27:11;6.80;;;6.50;;
727;SDS011;347;48.780;9.158;2023-04-01T22:32:24;6.63;;;6.43;;
727;SDS011;347;48.780;9.158;2023-04-01T22:37:50;7.20;;;6.90;;
727;SDS011;347;48.780;9.158;2023-04-01T22:42:56;7.07;;;6.80;;
727;SDS011;347;48.780;9.158;2023-04-01T22:50:59;7.30;;;6.87;;
727;SDS011;347;48.780;9.158;2023-04-01T22:54:04;6.90;;;6.70;;
727;SDS011;347;48.780;9.158;2023-04-01T22:57:01;6.30;;;6.00;;
727;SDS011;347;48.780;9.158;2023-04-01T23:02:18;6.23;;;5.93;;
727;SDS011;347;48.780;9.158;2023-04-01T23:04:54;5.97;;;5.77;;
727;SDS011;347;48.780;9.158;2023-04-01T23:13:16;6.27;;;6.07;;
727;SDS011;347;48.780;9.158;2023-04-01T23:15:48;6.70;;;6.50;;
727;SDS011;347;48.780;9.158;2023-04-01T23:20:53;5.90;;;5.70;;
727;SDS011;347;48.780;9.158;2023-04-01T23:28:55;5.93;;;5.73;;
727;SDS011;347;48.780;9.158;2023-04-01T23:31:26;6.50;;;6.20;;
727;SDS011;347;48.780;9.158;2023-04-01T23:34:17;6.30;;;6.10;;
727;SDS011;347;48.780;9.158;2023-04-01T23:36:48;6.30;;;6.10;;
727;SDS011;347;48.780;9.158;2023-04-01T23:39:33;5.50;;;5.30;;
727;SDS011;347;48.780;9.158;2023-04-01T23:42:47;6.23;;;6.00;;
727;SDS011;347;48.780;9.158;2023-04-01T23:44:50;6.10;;;5.90;;
727;SDS011;347;48.780;9.158;2023-04-01T23:47:22;6.40;;;6.00;;
727;SDS011;347;48.780;9.158;2023-04-01T23:52:24;6.20;;;6.00;;
727;SDS011;347;48.780;9.158;2023-04-01T23:57:27;5.80;;;5.60;;
